Terminal Aerodrome Forecast
Issued by NWS Shreveport, LA

Home | Current Version | Previous Version | Text Only | Print | Product List | Glossary On
Versions: 1 2 3 4 5 6 7 8 9 10 11 12 13 14 15 16
279
FTUS44 KSHV 242340
TAFMLU
TAF
KMLU 242340Z 2500/2524 27010KT P6SM FEW060
     FM250300 32012KT P6SM SCT030
     FM251200 35009KT P6SM SKC=

USA.gov is the U.S. government's official web portal to all federal, state and local government web resources and services.